West Akron, Ohio
Current Conditions -  °F | °C
As of 12:54 PM on Thursday 18 Dec 2014 (Local Time) from KAKR Reporting Station
Overcast Overcast  
Wind Chill: 21°   Ceiling: 1800
Heat Index: 30°   Visibility: 10mi
Dew Point: 22°   Wind: 12mph
Humidity: 72%   Direction: 260°W
Pressure: 30.16"   Gusts: NA
Location:  41.0707°N, 81.5458°W
Report Text: KAKR 181754Z AUTO 26010KT 10SM OVC018 M01/M06 A3016 RMK AO2 SLP224 T10111056 11011 21017 58010 $
Loading
Personal Weather Stations






























Interactive Weather Map New forecast layout! Learn more

10-Day Weather Forecast

Advertisements
Track Severe Weather on mobile